sensor_id;sensor_type;location;lat;lon;timestamp;P1;durP1;ratioP1;P2;durP2;ratioP2
10731;SDS011;5417;42.686;23.244;2022-12-18T00:00:48;4.57;;;4.33;;
10731;SDS011;5417;42.686;23.244;2022-12-18T00:03:15;5.17;;;4.87;;
10731;SDS011;5417;42.686;23.244;2022-12-18T00:05:46;5.03;;;4.67;;
10731;SDS011;5417;42.686;23.244;2022-12-18T00:08:14;5.40;;;5.00;;
10731;SDS011;5417;42.686;23.244;2022-12-18T00:10:43;4.60;;;4.40;;
10731;SDS011;5417;42.686;23.244;2022-12-18T00:13:12;4.77;;;4.47;;
10731;SDS011;5417;42.686;23.244;2022-12-18T00:15:39;5.77;;;5.37;;
10731;SDS011;5417;42.686;23.244;2022-12-18T00:18:06;5.50;;;5.03;;
10731;SDS011;5417;42.686;23.244;2022-12-18T00:20:35;4.43;;;4.13;;
10731;SDS011;5417;42.686;23.244;2022-12-18T00:23:02;5.47;;;4.97;;
10731;SDS011;5417;42.686;23.244;2022-12-18T00:25:48;5.23;;;4.93;;
10731;SDS011;5417;42.686;23.244;2022-12-18T00:28:15;5.27;;;4.97;;
10731;SDS011;5417;42.686;23.244;2022-12-18T00:30:44;5.57;;;5.17;;
10731;SDS011;5417;42.686;23.244;2022-12-18T00:33:19;5.77;;;5.33;;
10731;SDS011;5417;42.686;23.244;2022-12-18T00:35:48;4.97;;;4.67;;
10731;SDS011;5417;42.686;23.244;2022-12-18T00:38:15;4.90;;;4.60;;
10731;SDS011;5417;42.686;23.244;2022-12-18T00:40:43;5.43;;;5.03;;
10731;SDS011;5417;42.686;23.244;2022-12-18T00:43:13;5.70;;;5.30;;
10731;SDS011;5417;42.686;23.244;2022-12-18T00:45:39;5.30;;;4.90;;
10731;SDS011;5417;42.686;23.244;2022-12-18T00:48:06;5.40;;;5.00;;
10731;SDS011;5417;42.686;23.244;2022-12-18T00:50:33;5.33;;;4.93;;
10731;SDS011;5417;42.686;23.244;2022-12-18T00:53:00;5.43;;;5.00;;
10731;SDS011;5417;42.686;23.244;2022-12-18T00:55:27;5.43;;;5.07;;
10731;SDS011;5417;42.686;23.244;2022-12-18T00:57:54;5.63;;;5.23;;
10731;SDS011;5417;42.686;23.244;2022-12-18T01:00:22;5.37;;;5.03;;
10731;SDS011;5417;42.686;23.244;2022-12-18T01:02:49;5.80;;;5.40;;
10731;SDS011;5417;42.686;23.244;2022-12-18T01:05:16;5.27;;;4.87;;
10731;SDS011;5417;42.686;23.244;2022-12-18T01:07:50;4.83;;;4.53;;
10731;SDS011;5417;42.686;23.244;2022-12-18T01:10:17;5.00;;;4.70;;
10731;SDS011;5417;42.686;23.244;2022-12-18T01:12:44;5.40;;;5.00;;
10731;SDS011;5417;42.686;23.244;2022-12-18T01:15:14;4.97;;;4.67;;
10731;SDS011;5417;42.686;23.244;2022-12-18T01:17:50;5.40;;;4.97;;
10731;SDS011;5417;42.686;23.244;2022-12-18T01:20:19;5.63;;;5.23;;
10731;SDS011;5417;42.686;23.244;2022-12-18T01:22:46;5.67;;;5.17;;
10731;SDS011;5417;42.686;23.244;2022-12-18T01:25:13;5.87;;;5.47;;
10731;SDS011;5417;42.686;23.244;2022-12-18T01:27:40;5.93;;;5.47;;
10731;SDS011;5417;42.686;23.244;2022-12-18T01:30:08;5.90;;;5.40;;
10731;SDS011;5417;42.686;23.244;2022-12-18T01:32:37;5.97;;;5.53;;
10731;SDS011;5417;42.686;23.244;2022-12-18T01:35:07;6.00;;;5.50;;
10731;SDS011;5417;42.686;23.244;2022-12-18T01:37:34;6.30;;;5.80;;
10731;SDS011;5417;42.686;23.244;2022-12-18T01:40:01;7.10;;;6.50;;
10731;SDS011;5417;42.686;23.244;2022-12-18T01:42:28;6.30;;;5.80;;
10731;SDS011;5417;42.686;23.244;2022-12-18T01:44:57;6.30;;;5.90;;
10731;SDS011;5417;42.686;23.244;2022-12-18T01:47:49;6.57;;;6.00;;
10731;SDS011;5417;42.686;23.244;2022-12-18T01:50:20;6.10;;;5.60;;
10731;SDS011;5417;42.686;23.244;2022-12-18T01:52:50;6.07;;;5.57;;
10731;SDS011;5417;42.686;23.244;2022-12-18T01:55:20;7.40;;;6.70;;
10731;SDS011;5417;42.686;23.244;2022-12-18T01:57:50;6.20;;;5.80;;
10731;SDS011;5417;42.686;23.244;2022-12-18T02:00:21;5.93;;;5.53;;
10731;SDS011;5417;42.686;23.244;2022-12-18T02:02:49;6.30;;;5.83;;
10731;SDS011;5417;42.686;23.244;2022-12-18T02:05:17;6.50;;;6.00;;
10731;SDS011;5417;42.686;23.244;2022-12-18T02:07:53;6.03;;;5.53;;
10731;SDS011;5417;42.686;23.244;2022-12-18T02:10:30;6.00;;;5.60;;
10731;SDS011;5417;42.686;23.244;2022-12-18T02:13:02;6.50;;;6.00;;
10731;SDS011;5417;42.686;23.244;2022-12-18T02:15:39;6.67;;;6.00;;
10731;SDS011;5417;42.686;23.244;2022-12-18T02:18:11;6.00;;;5.60;;
10731;SDS011;5417;42.686;23.244;2022-12-18T02:20:43;5.47;;;5.07;;
10731;SDS011;5417;42.686;23.244;2022-12-18T02:23:17;5.40;;;5.00;;
10731;SDS011;5417;42.686;23.244;2022-12-18T02:25:54;5.27;;;4.87;;
10731;SDS011;5417;42.686;23.244;2022-12-18T02:28:31;5.97;;;5.50;;
10731;SDS011;5417;42.686;23.244;2022-12-18T02:31:02;5.37;;;4.93;;
10731;SDS011;5417;42.686;23.244;2022-12-18T02:33:33;5.00;;;4.70;;
10731;SDS011;5417;42.686;23.244;2022-12-18T02:36:02;5.90;;;5.50;;
10731;SDS011;5417;42.686;23.244;2022-12-18T02:38:30;5.70;;;5.20;;
10731;SDS011;5417;42.686;23.244;2022-12-18T02:40:59;5.60;;;5.17;;
10731;SDS011;5417;42.686;23.244;2022-12-18T02:43:27;6.03;;;5.63;;
10731;SDS011;5417;42.686;23.244;2022-12-18T02:45:56;5.60;;;5.20;;
10731;SDS011;5417;42.686;23.244;2022-12-18T02:48:25;5.63;;;4.60;;
10731;SDS011;5417;42.686;23.244;2022-12-18T02:50:59;5.40;;;5.00;;
10731;SDS011;5417;42.686;23.244;2022-12-18T02:53:36;5.00;;;4.70;;
10731;SDS011;5417;42.686;23.244;2022-12-18T02:56:13;5.07;;;4.77;;
10731;SDS011;5417;42.686;23.244;2022-12-18T02:58:47;5.70;;;5.20;;
10731;SDS011;5417;42.686;23.244;2022-12-18T03:01:24;4.97;;;4.67;;
10731;SDS011;5417;42.686;23.244;2022-12-18T03:03:57;5.20;;;4.90;;
10731;SDS011;5417;42.686;23.244;2022-12-18T03:06:28;5.53;;;5.13;;
10731;SDS011;5417;42.686;23.244;2022-12-18T03:09:00;5.60;;;5.20;;
10731;SDS011;5417;42.686;23.244;2022-12-18T03:11:34;5.30;;;4.97;;
10731;SDS011;5417;42.686;23.244;2022-12-18T03:14:23;5.93;;;5.40;;
10731;SDS011;5417;42.686;23.244;2022-12-18T03:16:53;5.93;;;5.53;;
10731;SDS011;5417;42.686;23.244;2022-12-18T03:19:25;5.03;;;4.73;;
10731;SDS011;5417;42.686;23.244;2022-12-18T03:21:55;5.80;;;5.30;;
10731;SDS011;5417;42.686;23.244;2022-12-18T03:24:24;5.97;;;5.37;;
10731;SDS011;5417;42.686;23.244;2022-12-18T03:26:57;6.33;;;5.83;;
10731;SDS011;5417;42.686;23.244;2022-12-18T03:29:30;6.50;;;6.00;;
10731;SDS011;5417;42.686;23.244;2022-12-18T03:32:02;6.07;;;4.87;;
10731;SDS011;5417;42.686;23.244;2022-12-18T03:34:33;4.87;;;4.57;;
10731;SDS011;5417;42.686;23.244;2022-12-18T03:37:03;4.63;;;4.30;;
10731;SDS011;5417;42.686;23.244;2022-12-18T03:39:31;5.20;;;4.80;;
10731;SDS011;5417;42.686;23.244;2022-12-18T03:42:01;5.00;;;4.60;;
10731;SDS011;5417;42.686;23.244;2022-12-18T03:44:34;5.07;;;4.77;;
10731;SDS011;5417;42.686;23.244;2022-12-18T03:47:06;5.07;;;4.67;;
10731;SDS011;5417;42.686;23.244;2022-12-18T03:49:40;5.23;;;4.83;;
10731;SDS011;5417;42.686;23.244;2022-12-18T03:52:15;4.87;;;4.50;;
10731;SDS011;5417;42.686;23.244;2022-12-18T03:54:48;4.83;;;4.43;;
10731;SDS011;5417;42.686;23.244;2022-12-18T03:57:18;5.10;;;4.60;;
10731;SDS011;5417;42.686;23.244;2022-12-18T03:59:49;4.90;;;4.50;;
10731;SDS011;5417;42.686;23.244;2022-12-18T04:02:19;4.53;;;4.20;;
10731;SDS011;5417;42.686;23.244;2022-12-18T04:04:49;5.80;;;5.30;;
10731;SDS011;5417;42.686;23.244;2022-12-18T04:07:19;4.70;;;4.40;;
10731;SDS011;5417;42.686;23.244;2022-12-18T04:09:47;5.73;;;5.30;;
10731;SDS011;5417;42.686;23.244;2022-12-18T04:12:18;5.67;;;5.17;;
10731;SDS011;5417;42.686;23.244;2022-12-18T04:14:45;5.83;;;5.33;;
10731;SDS011;5417;42.686;23.244;2022-12-18T04:17:12;5.40;;;5.00;;
10731;SDS011;5417;42.686;23.244;2022-12-18T04:19:39;6.10;;;5.60;;
10731;SDS011;5417;42.686;23.244;2022-12-18T04:22:06;6.23;;;5.70;;
10731;SDS011;5417;42.686;23.244;2022-12-18T04:24:35;5.87;;;5.37;;
10731;SDS011;5417;42.686;23.244;2022-12-18T04:27:02;5.87;;;5.37;;
10731;SDS011;5417;42.686;23.244;2022-12-18T04:29:31;7.67;;;6.03;;
10731;SDS011;5417;42.686;23.244;2022-12-18T04:31:59;6.90;;;6.30;;
10731;SDS011;5417;42.686;23.244;2022-12-18T04:34:26;6.67;;;6.07;;
10731;SDS011;5417;42.686;23.244;2022-12-18T04:36:53;6.30;;;5.80;;
10731;SDS011;5417;42.686;23.244;2022-12-18T04:39:20;7.33;;;6.07;;
10731;SDS011;5417;42.686;23.244;2022-12-18T04:41:47;7.07;;;6.50;;
10731;SDS011;5417;42.686;23.244;2022-12-18T04:44:14;7.17;;;6.57;;
10731;SDS011;5417;42.686;23.244;2022-12-18T04:46:42;6.07;;;5.63;;
10731;SDS011;5417;42.686;23.244;2022-12-18T04:49:09;7.13;;;6.43;;
10731;SDS011;5417;42.686;23.244;2022-12-18T04:51:36;7.90;;;7.20;;
10731;SDS011;5417;42.686;23.244;2022-12-18T04:54:03;7.40;;;6.77;;
10731;SDS011;5417;42.686;23.244;2022-12-18T04:56:30;7.67;;;6.97;;
10731;SDS011;5417;42.686;23.244;2022-12-18T04:58:58;7.63;;;6.93;;
10731;SDS011;5417;42.686;23.244;2022-12-18T05:01:24;7.27;;;6.63;;
10731;SDS011;5417;42.686;23.244;2022-12-18T05:03:53;7.60;;;6.87;;
10731;SDS011;5417;42.686;23.244;2022-12-18T05:06:20;7.23;;;6.73;;
10731;SDS011;5417;42.686;23.244;2022-12-18T05:08:47;8.67;;;7.87;;
10731;SDS011;5417;42.686;23.244;2022-12-18T05:11:14;8.33;;;7.53;;
10731;SDS011;5417;42.686;23.244;2022-12-18T05:13:42;7.93;;;7.23;;
10731;SDS011;5417;42.686;23.244;2022-12-18T05:16:10;9.73;;;8.73;;
10731;SDS011;5417;42.686;23.244;2022-12-18T05:18:38;8.40;;;7.70;;
10731;SDS011;5417;42.686;23.244;2022-12-18T05:21:06;8.87;;;8.07;;
10731;SDS011;5417;42.686;23.244;2022-12-18T05:23:34;9.67;;;8.70;;
10731;SDS011;5417;42.686;23.244;2022-12-18T05:26:02;8.93;;;8.13;;
10731;SDS011;5417;42.686;23.244;2022-12-18T05:28:31;7.97;;;7.33;;
10731;SDS011;5417;42.686;23.244;2022-12-18T05:31:00;9.60;;;8.70;;
10731;SDS011;5417;42.686;23.244;2022-12-18T05:33:29;7.67;;;6.97;;
10731;SDS011;5417;42.686;23.244;2022-12-18T05:35:58;8.07;;;7.30;;
10731;SDS011;5417;42.686;23.244;2022-12-18T05:38:28;8.57;;;7.63;;
10731;SDS011;5417;42.686;23.244;2022-12-18T05:40:55;8.00;;;7.30;;
10731;SDS011;5417;42.686;23.244;2022-12-18T05:43:23;9.23;;;8.40;;
10731;SDS011;5417;42.686;23.244;2022-12-18T05:45:53;8.87;;;7.97;;
10731;SDS011;5417;42.686;23.244;2022-12-18T05:48:21;9.63;;;8.47;;
10731;SDS011;5417;42.686;23.244;2022-12-18T05:50:48;10.07;;;9.07;;
10731;SDS011;5417;42.686;23.244;2022-12-18T05:53:17;10.67;;;9.57;;
10731;SDS011;5417;42.686;23.244;2022-12-18T05:55:47;10.57;;;9.50;;
10731;SDS011;5417;42.686;23.244;2022-12-18T05:58:15;10.67;;;9.57;;
10731;SDS011;5417;42.686;23.244;2022-12-18T06:00:43;11.30;;;10.20;;
10731;SDS011;5417;42.686;23.244;2022-12-18T06:03:11;11.03;;;9.93;;
10731;SDS011;5417;42.686;23.244;2022-12-18T06:05:39;9.40;;;8.50;;
10731;SDS011;5417;42.686;23.244;2022-12-18T06:08:08;9.00;;;8.10;;
10731;SDS011;5417;42.686;23.244;2022-12-18T06:10:35;10.10;;;9.10;;
10731;SDS011;5417;42.686;23.244;2022-12-18T06:13:04;10.03;;;9.13;;
10731;SDS011;5417;42.686;23.244;2022-12-18T06:15:31;9.40;;;8.50;;
10731;SDS011;5417;42.686;23.244;2022-12-18T06:18:00;8.93;;;8.13;;
10731;SDS011;5417;42.686;23.244;2022-12-18T06:20:27;9.53;;;8.63;;
10731;SDS011;5417;42.686;23.244;2022-12-18T06:22:53;9.70;;;8.70;;
10731;SDS011;5417;42.686;23.244;2022-12-18T06:25:20;8.80;;;7.90;;
10731;SDS011;5417;42.686;23.244;2022-12-18T06:27:47;9.27;;;8.33;;
10731;SDS011;5417;42.686;23.244;2022-12-18T06:30:15;8.73;;;7.87;;
10731;SDS011;5417;42.686;23.244;2022-12-18T06:32:42;9.47;;;8.43;;
10731;SDS011;5417;42.686;23.244;2022-12-18T06:35:09;10.87;;;9.80;;
10731;SDS011;5417;42.686;23.244;2022-12-18T06:37:36;10.50;;;9.40;;
10731;SDS011;5417;42.686;23.244;2022-12-18T06:40:04;9.67;;;8.67;;
10731;SDS011;5417;42.686;23.244;2022-12-18T06:42:32;9.53;;;8.63;;
10731;SDS011;5417;42.686;23.244;2022-12-18T06:44:59;10.33;;;9.30;;
10731;SDS011;5417;42.686;23.244;2022-12-18T06:47:27;10.50;;;9.50;;
10731;SDS011;5417;42.686;23.244;2022-12-18T06:49:54;9.93;;;9.13;;
10731;SDS011;5417;42.686;23.244;2022-12-18T06:52:21;10.00;;;9.03;;
10731;SDS011;5417;42.686;23.244;2022-12-18T06:54:48;9.63;;;8.37;;
10731;SDS011;5417;42.686;23.244;2022-12-18T06:57:15;10.90;;;9.73;;
10731;SDS011;5417;42.686;23.244;2022-12-18T06:59:42;9.60;;;8.60;;
10731;SDS011;5417;42.686;23.244;2022-12-18T07:02:10;9.77;;;8.87;;
10731;SDS011;5417;42.686;23.244;2022-12-18T07:04:40;10.70;;;8.77;;
10731;SDS011;5417;42.686;23.244;2022-12-18T07:07:07;8.97;;;8.10;;
10731;SDS011;5417;42.686;23.244;2022-12-18T07:09:34;9.53;;;8.43;;
10731;SDS011;5417;42.686;23.244;2022-12-18T07:12:01;9.80;;;8.80;;
10731;SDS011;5417;42.686;23.244;2022-12-18T07:14:30;10.43;;;9.07;;
10731;SDS011;5417;42.686;23.244;2022-12-18T07:16:56;9.13;;;8.23;;
10731;SDS011;5417;42.686;23.244;2022-12-18T07:19:23;9.73;;;8.83;;
10731;SDS011;5417;42.686;23.244;2022-12-18T07:21:52;10.60;;;9.50;;
10731;SDS011;5417;42.686;23.244;2022-12-18T07:24:18;11.50;;;9.90;;
10731;SDS011;5417;42.686;23.244;2022-12-18T07:26:45;11.70;;;10.43;;
10731;SDS011;5417;42.686;23.244;2022-12-18T07:29:12;11.20;;;10.07;;
10731;SDS011;5417;42.686;23.244;2022-12-18T07:31:39;11.43;;;10.33;;
10731;SDS011;5417;42.686;23.244;2022-12-18T07:34:09;11.27;;;9.97;;
10731;SDS011;5417;42.686;23.244;2022-12-18T07:36:36;11.43;;;10.33;;
10731;SDS011;5417;42.686;23.244;2022-12-18T07:39:05;11.70;;;10.10;;
10731;SDS011;5417;42.686;23.244;2022-12-18T07:41:34;12.57;;;10.47;;
10731;SDS011;5417;42.686;23.244;2022-12-18T07:44:01;11.27;;;10.03;;
10731;SDS011;5417;42.686;23.244;2022-12-18T07:46:28;14.47;;;10.87;;
10731;SDS011;5417;42.686;23.244;2022-12-18T07:48:54;11.47;;;10.27;;
10731;SDS011;5417;42.686;23.244;2022-12-18T07:51:21;12.00;;;10.80;;
10731;SDS011;5417;42.686;23.244;2022-12-18T07:53:48;12.87;;;11.57;;
10731;SDS011;5417;42.686;23.244;2022-12-18T07:56:17;13.17;;;11.47;;
10731;SDS011;5417;42.686;23.244;2022-12-18T07:58:47;13.47;;;12.03;;
10731;SDS011;5417;42.686;23.244;2022-12-18T08:01:14;14.33;;;12.83;;
10731;SDS011;5417;42.686;23.244;2022-12-18T08:03:41;16.47;;;13.10;;
10731;SDS011;5417;42.686;23.244;2022-12-18T08:06:08;14.30;;;12.80;;
10731;SDS011;5417;42.686;23.244;2022-12-18T08:08:36;15.40;;;12.67;;
10731;SDS011;5417;42.686;23.244;2022-12-18T08:11:13;13.40;;;12.00;;
10731;SDS011;5417;42.686;23.244;2022-12-18T08:13:41;13.37;;;11.90;;
10731;SDS011;5417;42.686;23.244;2022-12-18T08:16:11;13.97;;;12.40;;
10731;SDS011;5417;42.686;23.244;2022-12-18T08:18:42;13.23;;;11.83;;
10731;SDS011;5417;42.686;23.244;2022-12-18T08:21:19;13.40;;;12.00;;
10731;SDS011;5417;42.686;23.244;2022-12-18T08:23:54;14.17;;;11.97;;
10731;SDS011;5417;42.686;23.244;2022-12-18T08:26:27;15.50;;;13.00;;
10731;SDS011;5417;42.686;23.244;2022-12-18T08:29:04;14.80;;;12.83;;
10731;SDS011;5417;42.686;23.244;2022-12-18T08:31:31;12.97;;;11.57;;
10731;SDS011;5417;42.686;23.244;2022-12-18T08:33:58;14.33;;;12.87;;
10731;SDS011;5417;42.686;23.244;2022-12-18T08:36:25;15.97;;;13.50;;
10731;SDS011;5417;42.686;23.244;2022-12-18T08:38:51;15.97;;;13.23;;
10731;SDS011;5417;42.686;23.244;2022-12-18T08:41:18;14.53;;;13.03;;
10731;SDS011;5417;42.686;23.244;2022-12-18T08:43:46;13.57;;;11.97;;
10731;SDS011;5417;42.686;23.244;2022-12-18T08:46:35;14.23;;;12.03;;
10731;SDS011;5417;42.686;23.244;2022-12-18T08:49:04;16.13;;;12.43;;
10731;SDS011;5417;42.686;23.244;2022-12-18T08:51:33;12.97;;;11.57;;
10731;SDS011;5417;42.686;23.244;2022-12-18T08:54:00;14.37;;;11.93;;
10731;SDS011;5417;42.686;23.244;2022-12-18T08:56:27;12.30;;;10.97;;
10731;SDS011;5417;42.686;23.244;2022-12-18T08:58:55;14.03;;;11.57;;
10731;SDS011;5417;42.686;23.244;2022-12-18T09:01:22;13.57;;;12.17;;
10731;SDS011;5417;42.686;23.244;2022-12-18T09:03:51;12.93;;;11.60;;
10731;SDS011;5417;42.686;23.244;2022-12-18T09:06:19;12.33;;;11.13;;
10731;SDS011;5417;42.686;23.244;2022-12-18T09:08:47;14.10;;;12.03;;
10731;SDS011;5417;42.686;23.244;2022-12-18T09:11:14;13.70;;;11.70;;
10731;SDS011;5417;42.686;23.244;2022-12-18T09:13:45;15.17;;;12.73;;
10731;SDS011;5417;42.686;23.244;2022-12-18T09:16:12;14.33;;;12.67;;
10731;SDS011;5417;42.686;23.244;2022-12-18T09:18:39;15.83;;;13.63;;
10731;SDS011;5417;42.686;23.244;2022-12-18T09:21:11;14.53;;;12.10;;
10731;SDS011;5417;42.686;23.244;2022-12-18T09:23:40;13.47;;;11.57;;
10731;SDS011;5417;42.686;23.244;2022-12-18T09:26:07;13.17;;;11.43;;
10731;SDS011;5417;42.686;23.244;2022-12-18T09:28:34;16.03;;;12.17;;
10731;SDS011;5417;42.686;23.244;2022-12-18T09:31:03;14.20;;;11.40;;
10731;SDS011;5417;42.686;23.244;2022-12-18T09:33:32;16.20;;;12.43;;
10731;SDS011;5417;42.686;23.244;2022-12-18T09:36:00;13.27;;;11.77;;
10731;SDS011;5417;42.686;23.244;2022-12-18T09:38:30;14.30;;;12.10;;
10731;SDS011;5417;42.686;23.244;2022-12-18T09:40:57;14.60;;;12.40;;
10731;SDS011;5417;42.686;23.244;2022-12-18T09:43:30;17.10;;;15.37;;
10731;SDS011;5417;42.686;23.244;2022-12-18T09:46:06;14.30;;;12.70;;
10731;SDS011;5417;42.686;23.244;2022-12-18T09:48:39;13.27;;;11.93;;
10731;SDS011;5417;42.686;23.244;2022-12-18T09:51:11;12.30;;;10.80;;
10731;SDS011;5417;42.686;23.244;2022-12-18T09:53:44;13.93;;;11.40;;
10731;SDS011;5417;42.686;23.244;2022-12-18T09:56:18;15.07;;;12.73;;
10731;SDS011;5417;42.686;23.244;2022-12-18T09:58:51;13.40;;;11.53;;
10731;SDS011;5417;42.686;23.244;2022-12-18T10:01:24;12.50;;;10.00;;
10731;SDS011;5417;42.686;23.244;2022-12-18T10:03:52;14.13;;;12.30;;
10731;SDS011;5417;42.686;23.244;2022-12-18T10:06:21;14.03;;;11.57;;
10731;SDS011;5417;42.686;23.244;2022-12-18T10:08:57;13.43;;;11.57;;
10731;SDS011;5417;42.686;23.244;2022-12-18T10:11:38;11.83;;;10.63;;
10731;SDS011;5417;42.686;23.244;2022-12-18T10:14:11;11.43;;;10.10;;
10731;SDS011;5417;42.686;23.244;2022-12-18T10:16:47;13.80;;;9.90;;
10731;SDS011;5417;42.686;23.244;2022-12-18T10:19:29;11.43;;;10.23;;
10731;SDS011;5417;42.686;23.244;2022-12-18T10:22:07;13.37;;;11.23;;
10731;SDS011;5417;42.686;23.244;2022-12-18T10:24:44;12.80;;;10.53;;
10731;SDS011;5417;42.686;23.244;2022-12-18T10:27:21;11.67;;;10.53;;
10731;SDS011;5417;42.686;23.244;2022-12-18T10:29:50;12.03;;;10.13;;
10731;SDS011;5417;42.686;23.244;2022-12-18T10:32:24;12.73;;;10.60;;
10731;SDS011;5417;42.686;23.244;2022-12-18T10:34:53;12.20;;;10.73;;
10731;SDS011;5417;42.686;23.244;2022-12-18T10:37:24;11.77;;;10.20;;
10731;SDS011;5417;42.686;23.244;2022-12-18T10:42:43;12.70;;;10.73;;
10731;SDS011;5417;42.686;23.244;2022-12-18T10:45:12;11.40;;;10.20;;
10731;SDS011;5417;42.686;23.244;2022-12-18T10:47:42;12.80;;;10.97;;
10731;SDS011;5417;42.686;23.244;2022-12-18T10:52:55;10.10;;;8.87;;
10731;SDS011;5417;42.686;23.244;2022-12-18T10:55:26;11.53;;;9.87;;
10731;SDS011;5417;42.686;23.244;2022-12-18T10:57:56;14.20;;;10.03;;
10731;SDS011;5417;42.686;23.244;2022-12-18T11:00:43;13.07;;;11.30;;
10731;SDS011;5417;42.686;23.244;2022-12-18T11:03:28;11.93;;;10.43;;
10731;SDS011;5417;42.686;23.244;2022-12-18T11:06:02;12.50;;;10.27;;
10731;SDS011;5417;42.686;23.244;2022-12-18T11:08:30;11.60;;;10.10;;
10731;SDS011;5417;42.686;23.244;2022-12-18T11:10:59;10.77;;;9.67;;
10731;SDS011;5417;42.686;23.244;2022-12-18T11:13:27;11.57;;;10.23;;
10731;SDS011;5417;42.686;23.244;2022-12-18T11:15:57;16.27;;;12.10;;
10731;SDS011;5417;42.686;23.244;2022-12-18T11:18:25;11.80;;;10.50;;
10731;SDS011;5417;42.686;23.244;2022-12-18T11:20:54;13.93;;;11.20;;
10731;SDS011;5417;42.686;23.244;2022-12-18T11:23:23;11.47;;;10.23;;
10731;SDS011;5417;42.686;23.244;2022-12-18T11:25:52;10.20;;;8.73;;
10731;SDS011;5417;42.686;23.244;2022-12-18T11:28:28;9.03;;;8.03;;
10731;SDS011;5417;42.686;23.244;2022-12-18T11:31:12;9.93;;;8.83;;
10731;SDS011;5417;42.686;23.244;2022-12-18T14:09:14;10.77;;;9.67;;
10731;SDS011;5417;42.686;23.244;2022-12-18T14:11:46;10.57;;;9.30;;
10731;SDS011;5417;42.686;23.244;2022-12-18T14:14:14;12.10;;;10.73;;
10731;SDS011;5417;42.686;23.244;2022-12-18T14:16:42;11.80;;;10.40;;
10731;SDS011;5417;42.686;23.244;2022-12-18T14:19:11;10.37;;;9.27;;
10731;SDS011;5417;42.686;23.244;2022-12-18T14:21:46;10.03;;;9.03;;
10731;SDS011;5417;42.686;23.244;2022-12-18T14:24:19;10.50;;;9.40;;
10731;SDS011;5417;42.686;23.244;2022-12-18T14:26:47;12.00;;;10.70;;
10731;SDS011;5417;42.686;23.244;2022-12-18T14:29:19;10.70;;;9.47;;
10731;SDS011;5417;42.686;23.244;2022-12-18T14:32:05;12.03;;;9.90;;
10731;SDS011;5417;42.686;23.244;2022-12-18T14:34:42;11.27;;;10.07;;
10731;SDS011;5417;42.686;23.244;2022-12-18T14:37:09;16.07;;;12.10;;
10731;SDS011;5417;42.686;23.244;2022-12-18T14:39:40;11.43;;;10.13;;
10731;SDS011;5417;42.686;23.244;2022-12-18T14:42:10;9.77;;;8.77;;
10731;SDS011;5417;42.686;23.244;2022-12-18T14:44:37;10.83;;;9.40;;
10731;SDS011;5417;42.686;23.244;2022-12-18T14:47:04;11.17;;;8.97;;
10731;SDS011;5417;42.686;23.244;2022-12-18T14:49:31;9.90;;;8.73;;
10731;SDS011;5417;42.686;23.244;2022-12-18T14:52:02;12.13;;;9.93;;
10731;SDS011;5417;42.686;23.244;2022-12-18T14:54:31;16.83;;;13.30;;
10731;SDS011;5417;42.686;23.244;2022-12-18T14:57:02;11.47;;;10.27;;
10731;SDS011;5417;42.686;23.244;2022-12-18T14:59:31;11.83;;;10.30;;
10731;SDS011;5417;42.686;23.244;2022-12-18T15:02:00;11.67;;;10.30;;
10731;SDS011;5417;42.686;23.244;2022-12-18T15:04:31;15.60;;;12.13;;
10731;SDS011;5417;42.686;23.244;2022-12-18T15:07:11;10.17;;;9.17;;
10731;SDS011;5417;42.686;23.244;2022-12-18T15:09:41;9.50;;;8.60;;
10731;SDS011;5417;42.686;23.244;2022-12-18T15:12:28;10.53;;;9.43;;
10731;SDS011;5417;42.686;23.244;2022-12-18T15:15:00;11.57;;;9.27;;
10731;SDS011;5417;42.686;23.244;2022-12-18T15:17:28;9.83;;;8.77;;
10731;SDS011;5417;42.686;23.244;2022-12-18T15:19:58;11.60;;;9.37;;
10731;SDS011;5417;42.686;23.244;2022-12-18T15:22:28;11.37;;;9.60;;
10731;SDS011;5417;42.686;23.244;2022-12-18T15:24:57;11.57;;;9.53;;
10731;SDS011;5417;42.686;23.244;2022-12-18T15:27:28;10.53;;;9.43;;
10731;SDS011;5417;42.686;23.244;2022-12-18T15:30:17;11.03;;;9.83;;
10731;SDS011;5417;42.686;23.244;2022-12-18T15:32:46;12.63;;;9.90;;
10731;SDS011;5417;42.686;23.244;2022-12-18T15:35:15;10.80;;;9.47;;
10731;SDS011;5417;42.686;23.244;2022-12-18T15:39:43;12.50;;;9.80;;
10731;SDS011;5417;42.686;23.244;2022-12-18T15:41:48;11.53;;;9.93;;
10731;SDS011;5417;42.686;23.244;2022-12-18T15:44:16;13.70;;;9.50;;
10731;SDS011;5417;42.686;23.244;2022-12-18T15:46:47;12.70;;;9.93;;
10731;SDS011;5417;42.686;23.244;2022-12-18T15:49:14;10.53;;;9.43;;
10731;SDS011;5417;42.686;23.244;2022-12-18T15:51:42;15.33;;;11.30;;
10731;SDS011;5417;42.686;23.244;2022-12-18T15:54:09;13.33;;;11.43;;
10731;SDS011;5417;42.686;23.244;2022-12-18T15:56:40;11.93;;;10.80;;
10731;SDS011;5417;42.686;23.244;2022-12-18T15:59:26;13.33;;;11.50;;
10731;SDS011;5417;42.686;23.244;2022-12-18T16:01:53;13.63;;;10.60;;
10731;SDS011;5417;42.686;23.244;2022-12-18T16:04:21;12.83;;;10.67;;
10731;SDS011;5417;42.686;23.244;2022-12-18T16:06:49;13.80;;;10.80;;
10731;SDS011;5417;42.686;23.244;2022-12-18T16:09:17;12.57;;;10.77;;
10731;SDS011;5417;42.686;23.244;2022-12-18T16:11:44;15.30;;;12.53;;
10731;SDS011;5417;42.686;23.244;2022-12-18T16:16:54;14.33;;;11.47;;
10731;SDS011;5417;42.686;23.244;2022-12-18T16:19:23;11.63;;;9.77;;
10731;SDS011;5417;42.686;23.244;2022-12-18T16:21:51;12.20;;;10.93;;
10731;SDS011;5417;42.686;23.244;2022-12-18T16:24:22;12.60;;;10.73;;
10731;SDS011;5417;42.686;23.244;2022-12-18T16:26:50;13.03;;;11.27;;
10731;SDS011;5417;42.686;23.244;2022-12-18T16:29:19;11.10;;;9.93;;
10731;SDS011;5417;42.686;23.244;2022-12-18T16:31:56;12.73;;;10.47;;
10731;SDS011;5417;42.686;23.244;2022-12-18T16:34:24;11.77;;;10.07;;
10731;SDS011;5417;42.686;23.244;2022-12-18T16:36:54;12.27;;;10.87;;
10731;SDS011;5417;42.686;23.244;2022-12-18T16:39:22;11.97;;;10.73;;
10731;SDS011;5417;42.686;23.244;2022-12-18T16:41:49;11.73;;;9.87;;
10731;SDS011;5417;42.686;23.244;2022-12-18T16:44:16;14.07;;;9.87;;
10731;SDS011;5417;42.686;23.244;2022-12-18T17:42:21;13.20;;;10.90;;
10731;SDS011;5417;42.686;23.244;2022-12-18T17:45:35;13.73;;;11.30;;
10731;SDS011;5417;42.686;23.244;2022-12-18T17:49:38;13.60;;;11.17;;
10731;SDS011;5417;42.686;23.244;2022-12-18T17:53:07;12.37;;;11.07;;
10731;SDS011;5417;42.686;23.244;2022-12-18T17:59:20;11.97;;;10.67;;
10731;SDS011;5417;42.686;23.244;2022-12-18T18:02:24;12.23;;;10.13;;
10731;SDS011;5417;42.686;23.244;2022-12-18T18:05:26;13.53;;;10.83;;
10731;SDS011;5417;42.686;23.244;2022-12-18T18:14:50;11.93;;;10.20;;
10731;SDS011;5417;42.686;23.244;2022-12-18T18:17:26;13.47;;;10.10;;
10731;SDS011;5417;42.686;23.244;2022-12-18T18:20:02;10.87;;;9.73;;
10731;SDS011;5417;42.686;23.244;2022-12-18T18:22:33;13.33;;;10.87;;
10731;SDS011;5417;42.686;23.244;2022-12-18T18:25:12;15.47;;;10.80;;
10731;SDS011;5417;42.686;23.244;2022-12-18T18:27:43;12.17;;;10.67;;
10731;SDS011;5417;42.686;23.244;2022-12-18T18:30:21;12.27;;;10.60;;
10731;SDS011;5417;42.686;23.244;2022-12-18T18:32:52;10.87;;;9.70;;
10731;SDS011;5417;42.686;23.244;2022-12-18T18:35:21;13.10;;;11.23;;
10731;SDS011;5417;42.686;23.244;2022-12-18T18:44:28;12.07;;;10.67;;
10731;SDS011;5417;42.686;23.244;2022-12-18T18:54:18;13.30;;;10.07;;
10731;SDS011;5417;42.686;23.244;2022-12-18T18:56:49;12.97;;;9.83;;
10731;SDS011;5417;42.686;23.244;2022-12-18T18:59:23;12.70;;;9.40;;
10731;SDS011;5417;42.686;23.244;2022-12-18T19:02:19;11.70;;;10.43;;